Brighton Township, Michigan
Current Conditions -  °F | °C
As of 8:35 AM on Sunday 23 Nov 2014 (Local Time) from KOZW Reporting Station
Overcast Overcast  
Wind Chill: 39°   Ceiling: 9000
Heat Index: 45°   Visibility: 10mi
Dew Point: 43°   Wind: 12mph
Humidity: 92%   Direction: 180°S
Pressure: 29.89"   Gusts: 16mph
Location:  42.5333°N, 83.7735°W
Report Text: KOZW 231335Z AUTO 18010G14KT 10SM SCT029 SCT033 OVC090 07/06 A2989 RMK AO2 T00730061
Loading
Personal Weather Stations






























Interactive Weather Map New forecast layout! Learn more

10-Day Weather Forecast

Advertisements
Track Severe Weather on mobile